sensor_id;sensor_type;location;lat;lon;timestamp;pressure;altitude;pressure_sealevel;temperature;humidity
65054;BME280;51639;47.828;35.038;2024-03-22T00:00:34;100628.81;;;5.63;100.00
65054;BME280;51639;47.828;35.038;2024-03-22T00:15:35;100624.91;;;5.57;100.00
65054;BME280;51639;47.828;35.038;2024-03-22T00:30:36;100624.00;;;5.46;100.00
65054;BME280;51639;47.828;35.038;2024-03-22T00:45:38;100625.16;;;5.41;100.00
65054;BME280;51639;47.828;35.038;2024-03-22T01:00:39;100618.00;;;4.56;100.00
65054;BME280;51639;47.828;35.038;2024-03-22T01:15:41;100604.94;;;4.24;100.00
65054;BME280;51639;47.828;35.038;2024-03-22T01:30:42;100605.84;;;4.09;100.00
65054;BME280;51639;47.828;35.038;2024-03-22T01:45:46;100606.03;;;4.50;100.00
65054;BME280;51639;47.828;35.038;2024-03-22T02:00:47;100600.63;;;4.46;100.00
65054;BME280;51639;47.828;35.038;2024-03-22T02:15:48;100608.94;;;4.37;100.00
65054;BME280;51639;47.828;35.038;2024-03-22T02:30:49;100617.13;;;4.18;100.00
65054;BME280;51639;47.828;35.038;2024-03-22T02:45:50;100603.28;;;4.16;100.00
65054;BME280;51639;47.828;35.038;2024-03-22T03:00:51;100608.44;;;4.02;100.00
65054;BME280;51639;47.828;35.038;2024-03-22T03:15:52;100602.13;;;3.91;100.00
65054;BME280;51639;47.828;35.038;2024-03-22T03:30:52;100600.06;;;4.07;100.00
65054;BME280;51639;47.828;35.038;2024-03-22T03:45:54;100602.34;;;4.05;100.00
65054;BME280;51639;47.828;35.038;2024-03-22T04:00:55;100631.28;;;4.41;100.00
65054;BME280;51639;47.828;35.038;2024-03-22T04:15:59;100605.28;;;4.83;100.00
65054;BME280;51639;47.828;35.038;2024-03-22T04:31:04;100590.59;;;4.76;100.00
65054;BME280;51639;47.828;35.038;2024-03-22T04:46:06;100601.13;;;4.89;100.00
65054;BME280;51639;47.828;35.038;2024-03-22T05:01:07;100601.72;;;4.75;100.00
65054;BME280;51639;47.828;35.038;2024-03-22T05:16:08;100611.56;;;4.94;100.00
65054;BME280;51639;47.828;35.038;2024-03-22T05:31:09;100624.69;;;5.36;100.00
65054;BME280;51639;47.828;35.038;2024-03-22T05:46:10;100610.00;;;5.30;100.00
65054;BME280;51639;47.828;35.038;2024-03-22T06:01:10;100628.41;;;5.24;100.00
65054;BME280;51639;47.828;35.038;2024-03-22T06:16:11;100629.91;;;5.18;100.00
65054;BME280;51639;47.828;35.038;2024-03-22T06:31:12;100630.75;;;5.26;100.00
65054;BME280;51639;47.828;35.038;2024-03-22T06:46:13;100617.03;;;5.38;100.00
65054;BME280;51639;47.828;35.038;2024-03-22T07:01:14;100619.19;;;4.88;100.00
65054;BME280;51639;47.828;35.038;2024-03-22T07:16:18;100611.75;;;4.78;100.00
65054;BME280;51639;47.828;35.038;2024-03-22T07:31:19;100630.50;;;4.41;100.00
65054;BME280;51639;47.828;35.038;2024-03-22T07:46:20;100618.53;;;4.65;100.00
65054;BME280;51639;47.828;35.038;2024-03-22T08:01:22;100611.84;;;4.85;100.00
65054;BME280;51639;47.828;35.038;2024-03-22T08:16:29;100597.84;;;5.43;100.00
65054;BME280;51639;47.828;35.038;2024-03-22T08:31:30;100587.09;;;5.43;100.00
65054;BME280;51639;47.828;35.038;2024-03-22T08:46:31;100574.91;;;5.60;100.00
65054;BME280;51639;47.828;35.038;2024-03-22T09:01:32;100565.88;;;6.62;91.06
65054;BME280;51639;47.828;35.038;2024-03-22T09:16:33;100566.63;;;5.86;100.00
65054;BME280;51639;47.828;35.038;2024-03-22T09:31:34;100564.63;;;6.31;99.83
65054;BME280;51639;47.828;35.038;2024-03-22T09:46:38;100554.03;;;6.88;96.38
65054;BME280;51639;47.828;35.038;2024-03-22T10:01:40;100546.34;;;7.11;89.98
65054;BME280;51639;47.828;35.038;2024-03-22T10:16:42;100538.69;;;7.24;92.95
65054;BME280;51639;47.828;35.038;2024-03-22T10:31:42;100522.09;;;7.43;91.48
65054;BME280;51639;47.828;35.038;2024-03-22T10:47:06;100528.63;;;7.56;91.75
65054;BME280;51639;47.828;35.038;2024-03-22T11:02:11;100525.56;;;7.40;94.68
65054;BME280;51639;47.828;35.038;2024-03-22T11:17:12;100522.06;;;7.18;96.67
65054;BME280;51639;47.828;35.038;2024-03-22T11:32:12;100502.78;;;7.34;99.21
65054;BME280;51639;47.828;35.038;2024-03-22T11:47:14;100512.06;;;7.54;97.24
65054;BME280;51639;47.828;35.038;2024-03-22T12:02:15;100484.66;;;7.48;96.39
65054;BME280;51639;47.828;35.038;2024-03-22T12:17:17;100467.63;;;7.69;98.13
65054;BME280;51639;47.828;35.038;2024-03-22T12:32:18;100459.53;;;7.76;99.38
65054;BME280;51639;47.828;35.038;2024-03-22T12:47:19;100445.19;;;7.94;92.65
65054;BME280;51639;47.828;35.038;2024-03-22T13:02:20;100437.47;;;7.88;90.16
65054;BME280;51639;47.828;35.038;2024-03-22T13:17:21;100415.84;;;7.81;95.24
65054;BME280;51639;47.828;35.038;2024-03-22T13:32:22;100406.22;;;7.80;95.84
65054;BME280;51639;47.828;35.038;2024-03-22T13:48:09;100412.75;;;7.86;96.26
65054;BME280;51639;47.828;35.038;2024-03-22T14:03:10;100414.28;;;7.95;97.04
65054;BME280;51639;47.828;35.038;2024-03-22T14:18:11;100385.69;;;7.97;95.68
65054;BME280;51639;47.828;35.038;2024-03-22T14:33:12;100381.06;;;7.94;99.92
65054;BME280;51639;47.828;35.038;2024-03-22T14:48:13;100384.94;;;7.90;98.91
65054;BME280;51639;47.828;35.038;2024-03-22T15:03:15;100374.16;;;7.82;99.06
65054;BME280;51639;47.828;35.038;2024-03-22T15:18:16;100378.41;;;7.83;100.00
65054;BME280;51639;47.828;35.038;2024-03-22T15:33:18;100381.84;;;7.95;99.71
65054;BME280;51639;47.828;35.038;2024-03-22T15:48:19;100393.84;;;7.86;100.00
65054;BME280;51639;47.828;35.038;2024-03-22T16:03:24;100389.63;;;7.78;99.82
65054;BME280;51639;47.828;35.038;2024-03-22T16:18:25;100395.44;;;8.53;93.48
65054;BME280;51639;47.828;35.038;2024-03-22T16:33:26;100397.84;;;8.41;93.72
65054;BME280;51639;47.828;35.038;2024-03-22T16:48:27;100405.66;;;8.21;95.56
65054;BME280;51639;47.828;35.038;2024-03-22T17:04:06;100419.19;;;8.21;98.88
65054;BME280;51639;47.828;35.038;2024-03-22T17:19:13;100406.66;;;7.65;100.00
65054;BME280;51639;47.828;35.038;2024-03-22T17:34:22;100410.91;;;7.59;100.00
65054;BME280;51639;47.828;35.038;2024-03-22T17:49:54;100398.09;;;7.80;100.00
65054;BME280;51639;47.828;35.038;2024-03-22T18:04:55;100380.53;;;7.23;100.00
65054;BME280;51639;47.828;35.038;2024-03-22T18:19:56;100373.22;;;7.05;100.00
65054;BME280;51639;47.828;35.038;2024-03-22T18:34:57;100367.06;;;6.80;100.00
65054;BME280;51639;47.828;35.038;2024-03-22T18:49:58;100368.59;;;6.67;100.00
65054;BME280;51639;47.828;35.038;2024-03-22T19:04:59;100361.28;;;6.60;100.00
65054;BME280;51639;47.828;35.038;2024-03-22T19:20:00;100357.72;;;6.17;100.00
65054;BME280;51639;47.828;35.038;2024-03-22T19:35:01;100370.88;;;6.29;100.00
65054;BME280;51639;47.828;35.038;2024-03-22T19:50:02;100385.88;;;6.23;100.00
65054;BME280;51639;47.828;35.038;2024-03-22T20:05:03;100391.63;;;6.11;100.00
65054;BME280;51639;47.828;35.038;2024-03-22T20:20:05;100396.25;;;6.10;100.00
65054;BME280;51639;47.828;35.038;2024-03-22T20:35:06;100398.66;;;4.95;100.00
